Time;durP1;ratioP1;P1;durP2;ratioP2;P2;SDS_P1;SDS_P2;PMS_P1;PMS_P2;Temp;Humidity;BMP_temperature;BMP_pressure;BME280_temperature;BME280_humidity;BME280_pressure;Samples;Min_cycle;Max_cycle;Signal;HPM_P1;HPM_P2
2023/05/21 00:01:14;;;;;;;0.00;0.00;;;16.60;99.90;;;;;;5133935;27;20027;-69
2023/05/21 00:03:41;;;;;;;0.30;0.30;;;16.70;99.90;;;;;;5133634;27;20027;-70
2023/05/21 00:06:07;;;;;;;0.10;0.10;;;16.70;99.90;;;;;;5133461;27;20107;-69
2023/05/21 00:08:33;;;;;;;0.03;0.03;;;16.60;99.90;;;;;;5133888;28;20515;-70
2023/05/21 00:10:59;;;;;;;0.08;0.08;;;16.60;99.90;;;;;;5111643;28;20507;-68
2023/05/21 00:13:24;;;;;;;0.05;0.05;;;16.50;99.90;;;;;;5133790;28;20075;-69
2023/05/21 00:15:50;;;;;;;0.45;0.45;;;16.30;99.90;;;;;;5133482;28;20027;-70
2023/05/21 00:18:17;;;;;;;0.00;0.00;;;16.30;99.90;;;;;;5133937;28;20038;-69
2023/05/21 00:20:42;;;;;;;0.00;0.00;;;16.30;99.90;;;;;;5133438;28;20012;-69
2023/05/21 00:23:09;;;;;;;0.00;0.00;;;16.40;99.90;;;;;;5115155;28;20360;-69
2023/05/21 00:25:34;;;;;;;0.00;0.00;;;16.40;99.90;;;;;;5133760;28;20026;-69
2023/05/21 00:28:00;;;;;;;0.00;0.00;;;16.30;99.90;;;;;;5133555;28;20031;-68
2023/05/21 00:30:26;;;;;;;0.28;0.28;;;16.30;99.90;;;;;;5115156;28;20023;-69
2023/05/21 00:32:51;;;;;;;0.10;0.10;;;16.30;99.90;;;;;;5115041;28;20125;-69
2023/05/21 00:35:18;;;;;;;1.30;1.20;;;16.30;99.90;;;;;;5114748;28;20027;-69
2023/05/21 00:37:44;;;;;;;0.40;0.38;;;16.30;99.90;;;;;;5115158;28;20031;-69
2023/05/21 00:40:10;;;;;;;0.05;0.05;;;16.30;99.90;;;;;;5114722;28;20023;-69
2023/05/21 00:42:39;;;;;;;0.22;0.22;;;16.40;99.90;;;;;;5115267;28;20062;-70
2023/05/21 00:45:06;;;;;;;0.10;0.10;;;16.30;99.90;;;;;;5133386;28;20047;-68
2023/05/21 00:47:33;;;;;;;0.10;0.10;;;16.40;99.90;;;;;;5133169;28;20058;-69
2023/05/21 00:50:01;;;;;;;0.00;0.00;;;16.20;99.90;;;;;;5133297;28;20046;-68
2023/05/21 00:52:26;;;;;;;0.00;0.00;;;16.30;99.90;;;;;;5114825;28;20468;-69
2023/05/21 00:54:53;;;;;;;0.00;0.00;;;16.30;99.90;;;;;;5133809;28;20106;-70
2023/05/21 00:57:20;;;;;;;0.00;0.00;;;16.20;99.90;;;;;;5133181;28;20032;-69
2023/05/21 00:59:51;;;;;;;0.10;0.10;;;16.20;99.90;;;;;;5098093;28;20176;-69
2023/05/21 01:02:17;;;;;;;0.10;0.10;;;16.10;99.90;;;;;;5114482;28;20084;-69
2023/05/21 01:04:44;;;;;;;0.00;0.00;;;16.20;99.90;;;;;;5116479;27;20031;-72
2023/05/21 01:07:11;;;;;;;0.03;0.03;;;16.10;99.90;;;;;;5101621;27;20469;-69
2023/05/21 01:09:38;;;;;;;0.00;0.00;;;16.10;99.90;;;;;;5131792;27;20472;-71
2023/05/21 01:12:04;;;;;;;0.63;0.63;;;15.90;99.90;;;;;;5127932;27;20371;-70
2023/05/21 01:14:31;;;;;;;0.00;0.00;;;15.90;99.90;;;;;;5118472;27;20055;-70
2023/05/21 01:17:00;;;;;;;0.05;0.05;;;15.90;99.90;;;;;;5136844;27;20072;-70
2023/05/21 01:19:27;;;;;;;0.05;0.05;;;15.90;99.90;;;;;;5136713;27;20130;-70
2023/05/21 01:22:03;;;;;;;0.03;0.03;;;15.90;99.90;;;;;;5136978;27;20060;-69
2023/05/21 01:24:30;;;;;;;0.10;0.10;;;15.80;99.90;;;;;;5118501;27;20027;-69
2023/05/21 01:26:57;;;;;;;0.10;0.10;;;15.80;99.90;;;;;;5136805;27;20031;-70
2023/05/21 01:29:23;;;;;;;0.00;0.00;;;15.60;99.90;;;;;;5136702;27;20093;-69
2023/05/21 01:32:05;;;;;;;9.73;0.68;;;15.60;99.90;;;;;;5136225;27;20043;-69
2023/05/21 01:34:44;;;;;;;0.10;0.10;;;15.50;99.90;;;;;;5118293;27;20114;-69
2023/05/21 01:37:31;;;;;;;0.25;0.25;;;15.40;99.90;;;;;;5136696;27;20029;-70
2023/05/21 01:40:10;;;;;;;0.10;0.10;;;15.30;99.90;;;;;;5136544;27;20030;-69
2023/05/21 01:42:40;;;;;;;0.08;0.08;;;15.20;99.90;;;;;;5136299;27;20042;-69
2023/05/21 01:45:07;;;;;;;0.10;0.10;;;15.50;99.90;;;;;;5117866;27;20023;-71
2023/05/21 01:47:36;;;;;;;0.10;0.10;;;15.40;99.90;;;;;;5117624;27;20062;-69
2023/05/21 01:50:04;;;;;;;0.03;0.03;;;15.50;99.90;;;;;;5117921;27;20042;-69
2023/05/21 01:52:29;;;;;;;0.10;0.10;;;15.40;99.90;;;;;;5118019;27;20390;-69
2023/05/21 01:54:59;;;;;;;0.00;0.00;;;15.40;99.90;;;;;;5117855;27;20031;-68
2023/05/21 01:57:25;;;;;;;0.10;0.10;;;15.30;99.90;;;;;;5117588;27;20364;-69
2023/05/21 01:59:55;;;;;;;0.00;0.00;;;15.20;99.90;;;;;;5117831;27;20026;-68
2023/05/21 02:02:20;;;;;;;0.00;0.00;;;15.20;99.90;;;;;;5117622;27;20024;-68
2023/05/21 02:04:46;;;;;;;0.00;0.00;;;15.20;99.90;;;;;;5118174;27;20022;-69
2023/05/21 02:07:13;;;;;;;0.75;0.75;;;15.20;99.90;;;;;;5117227;27;20471;-68
2023/05/21 02:09:39;;;;;;;0.00;0.00;;;15.20;99.90;;;;;;5112226;28;20043;-69
2023/05/21 02:12:06;;;;;;;0.00;0.00;;;15.10;99.90;;;;;;5108510;27;20409;-69
2023/05/21 02:14:35;;;;;;;0.10;0.10;;;15.00;99.90;;;;;;5135493;27;20102;-69
2023/05/21 02:17:01;;;;;;;0.10;0.10;;;15.00;99.90;;;;;;5116777;27;20087;-68
2023/05/21 02:19:26;;;;;;;0.10;0.10;;;15.10;99.90;;;;;;5117038;27;20035;-69
2023/05/21 02:21:52;;;;;;;0.10;0.10;;;15.10;99.90;;;;;;5117351;27;20011;-69
2023/05/21 02:24:18;;;;;;;0.00;0.00;;;15.00;99.90;;;;;;5124825;27;20150;-69
2023/05/21 02:26:44;;;;;;;0.00;0.00;;;15.10;99.90;;;;;;5096585;28;20059;-69
2023/05/21 02:29:10;;;;;;;0.00;0.00;;;15.10;99.90;;;;;;5118315;27;20066;-68
2023/05/21 02:31:35;;;;;;;0.00;0.00;;;15.10;99.90;;;;;;5129945;27;20030;-69
2023/05/21 02:34:01;;;;;;;0.10;0.10;;;15.10;99.90;;;;;;5121525;27;20034;-69
2023/05/21 02:36:27;;;;;;;0.10;0.10;;;15.10;99.90;;;;;;5116728;27;20007;-69
2023/05/21 02:38:53;;;;;;;0.10;0.10;;;15.10;99.90;;;;;;5135552;27;20035;-70
2023/05/21 02:41:20;;;;;;;0.00;0.00;;;15.00;99.90;;;;;;5113115;28;20076;-70
2023/05/21 02:43:46;;;;;;;1.05;1.05;;;15.00;99.90;;;;;;5123836;27;20031;-69
2023/05/21 02:46:12;;;;;;;0.10;0.10;;;15.00;99.90;;;;;;5116691;27;20015;-68
2023/05/21 02:48:38;;;;;;;0.00;0.00;;;15.00;99.90;;;;;;5116638;27;20027;-69
2023/05/21 02:51:04;;;;;;;0.10;0.10;;;15.00;99.90;;;;;;5100174;27;20031;-69
2023/05/21 02:53:30;;;;;;;0.15;0.15;;;15.00;99.90;;;;;;5116310;27;20015;-69
2023/05/21 02:55:56;;;;;;;0.00;0.00;;;14.90;99.90;;;;;;5135126;27;20041;-70
2023/05/21 02:58:24;;;;;;;0.00;0.00;;;14.90;99.90;;;;;;5131048;27;20057;-68
2023/05/21 03:00:51;;;;;;;0.10;0.10;;;14.90;99.90;;;;;;5105917;27;20027;-69
2023/05/21 03:03:17;;;;;;;0.03;0.03;;;15.00;99.90;;;;;;5116335;27;20035;-69
2023/05/21 03:05:44;;;;;;;0.08;0.08;;;15.10;99.90;;;;;;5116533;27;20030;-68
2023/05/21 03:08:11;;;;;;;0.10;0.10;;;15.10;99.90;;;;;;5116495;27;20030;-69
2023/05/21 03:10:36;;;;;;;0.10;0.10;;;15.10;99.90;;;;;;5116148;27;20023;-71
2023/05/21 03:13:03;;;;;;;0.10;0.10;;;15.10;99.90;;;;;;5116176;27;20274;-69
2023/05/21 03:15:32;;;;;;;0.00;0.00;;;15.00;99.90;;;;;;5116050;27;20049;-70
2023/05/21 03:17:58;;;;;;;0.10;0.10;;;14.90;99.90;;;;;;5134797;27;20023;-70
2023/05/21 03:20:24;;;;;;;0.00;0.00;;;15.00;99.90;;;;;;5116087;27;20030;-69
2023/05/21 03:22:49;;;;;;;0.25;0.25;;;14.80;99.90;;;;;;5116160;27;20023;-71
2023/05/21 03:25:15;;;;;;;0.30;0.30;;;14.90;99.90;;;;;;5115785;27;20382;-73
2023/05/21 03:27:41;;;;;;;0.10;0.10;;;14.90;99.90;;;;;;5115746;27;20076;-74
2023/05/21 03:30:21;;;;;;;0.20;0.20;;;15.00;99.90;;;;;;5115869;27;20505;-70
2023/05/21 03:33:07;;;;;;;0.40;0.40;;;14.90;99.90;;;;;;5125671;27;20081;-73
2023/05/21 03:35:33;;;;;;;0.00;0.00;;;14.80;99.90;;;;;;5109973;27;20483;-73
2023/05/21 03:37:59;;;;;;;0.20;0.20;;;14.80;99.90;;;;;;5115941;27;20024;-73
2023/05/21 03:40:25;;;;;;;0.88;0.25;;;14.80;99.90;;;;;;5115713;27;20019;-73
2023/05/21 03:42:51;;;;;;;0.13;0.13;;;14.90;99.90;;;;;;5115395;27;20421;-73
2023/05/21 03:45:17;;;;;;;0.10;0.10;;;14.90;99.90;;;;;;5115774;27;20396;-69
2023/05/21 03:48:03;;;;;;;0.10;0.10;;;14.80;99.90;;;;;;5115477;27;20526;-70
2023/05/21 03:50:30;;;;;;;0.40;0.32;;;14.70;99.90;;;;;;5115715;27;20035;-69
2023/05/21 03:52:56;;;;;;;0.25;0.25;;;14.70;99.90;;;;;;5115623;27;20023;-70
2023/05/21 03:55:21;;;;;;;0.10;0.10;;;14.70;99.90;;;;;;5133934;27;20019;-70
2023/05/21 03:57:47;;;;;;;0.00;0.00;;;14.70;99.90;;;;;;5115020;27;20361;-71
2023/05/21 04:00:14;;;;;;;0.35;0.35;;;14.80;99.90;;;;;;5115309;28;20027;-71
2023/05/21 04:02:42;;;;;;;0.05;0.05;;;15.00;99.90;;;;;;5134316;27;20027;-70
2023/05/21 04:05:10;;;;;;;0.03;0.03;;;15.00;99.90;;;;;;5115444;27;20026;-70
2023/05/21 04:07:37;;;;;;;0.10;0.10;;;14.90;99.90;;;;;;5133590;27;20395;-74
2023/05/21 04:10:03;;;;;;;0.10;0.10;;;14.90;99.90;;;;;;5115352;28;20087;-71
2023/05/21 04:12:31;;;;;;;0.10;0.10;;;14.90;99.90;;;;;;5133509;28;20039;-71
2023/05/21 04:14:56;;;;;;;0.00;0.00;;;14.90;99.90;;;;;;5115225;28;20031;-71
2023/05/21 04:17:25;;;;;;;3.95;1.50;;;14.80;99.90;;;;;;5115370;28;20032;-71
2023/05/21 04:19:51;;;;;;;0.03;0.03;;;14.80;99.90;;;;;;5114943;28;20497;-73
2023/05/21 04:22:17;;;;;;;0.10;0.10;;;14.90;99.90;;;;;;5115590;28;20007;-72
2023/05/21 04:24:45;;;;;;;0.10;0.10;;;14.90;99.90;;;;;;5114969;28;20117;-72
2023/05/21 04:27:18;;;;;;;0.10;0.10;;;15.00;99.90;;;;;;5100906;28;20394;-71
2023/05/21 04:29:44;;;;;;;0.00;0.00;;;14.80;99.90;;;;;;5098384;28;20069;-73
2023/05/21 04:32:10;;;;;;;0.00;0.00;;;14.70;99.90;;;;;;5114338;28;20049;-73
2023/05/21 04:34:36;;;;;;;0.00;0.00;;;14.70;99.90;;;;;;5101428;28;20059;-73
2023/05/21 04:37:03;;;;;;;0.47;0.47;;;14.70;99.90;;;;;;5115041;28;20020;-72
2023/05/21 04:39:30;;;;;;;0.03;0.03;;;14.90;99.90;;;;;;5115931;27;20027;-71
2023/05/21 04:41:56;;;;;;;0.20;0.20;;;14.80;99.90;;;;;;5118975;27;20096;-72
2023/05/21 04:44:22;;;;;;;0.10;0.10;;;14.90;99.90;;;;;;5119488;27;20027;-69
2023/05/21 04:46:49;;;;;;;0.20;0.20;;;14.90;99.90;;;;;;5119132;27;20026;-69
2023/05/21 04:49:16;;;;;;;0.10;0.10;;;15.10;99.90;;;;;;5119040;27;20498;-70
2023/05/21 04:51:42;;;;;;;0.10;0.10;;;15.20;99.90;;;;;;5118865;27;20011;-69
2023/05/21 04:54:08;;;;;;;0.10;0.10;;;15.40;99.90;;;;;;5137324;27;20038;-69
2023/05/21 04:56:34;;;;;;;0.10;0.10;;;15.50;99.90;;;;;;5137375;27;20075;-69
2023/05/21 04:59:01;;;;;;;0.00;0.00;;;15.50;99.90;;;;;;5118962;27;20019;-70
2023/05/21 05:01:28;;;;;;;0.10;0.10;;;15.70;99.90;;;;;;5118761;27;20019;-70
2023/05/21 05:03:54;;;;;;;0.10;0.10;;;15.50;99.90;;;;;;5118907;27;20031;-69
2023/05/21 05:06:21;;;;;;;0.00;0.00;;;15.70;99.90;;;;;;5137241;27;20045;-69
2023/05/21 05:08:47;;;;;;;0.08;0.08;;;15.80;99.90;;;;;;5118499;27;20031;-70
2023/05/21 05:11:14;;;;;;;0.90;0.90;;;15.70;99.90;;;;;;5118681;27;20042;-69
2023/05/21 05:13:42;;;;;;;0.50;0.50;;;15.60;99.90;;;;;;5118687;27;20431;-69
2023/05/21 05:16:08;;;;;;;0.20;0.20;;;15.70;99.90;;;;;;5137017;27;20129;-69
2023/05/21 05:18:35;;;;;;;0.25;0.25;;;15.70;99.90;;;;;;5118686;27;20016;-69
2023/05/21 05:21:01;;;;;;;0.10;0.10;;;15.70;99.90;;;;;;5118550;27;20410;-70
2023/05/21 05:23:27;;;;;;;0.52;0.52;;;15.70;99.90;;;;;;5117954;27;20027;-69
2023/05/21 05:25:53;;;;;;;0.30;0.30;;;15.50;99.90;;;;;;5118471;27;20122;-71
2023/05/21 05:28:19;;;;;;;0.20;0.20;;;15.50;99.90;;;;;;5136602;27;20054;-73
2023/05/21 05:30:46;;;;;;;0.10;0.10;;;15.60;99.90;;;;;;5118303;27;20083;-75
2023/05/21 05:33:20;;;;;;;0.10;0.10;;;15.80;99.90;;;;;;5107898;28;20065;-75
2023/05/21 05:35:45;;;;;;;0.10;0.10;;;15.80;99.90;;;;;;5132566;27;20023;-76
2023/05/21 05:38:12;;;;;;;0.40;0.40;;;15.90;99.90;;;;;;5136259;27;20030;-74
2023/05/21 05:40:38;;;;;;;0.20;0.20;;;15.90;99.90;;;;;;5117919;27;20027;-75
2023/05/21 05:43:04;;;;;;;2.63;1.10;;;16.10;99.90;;;;;;5117767;27;20087;-75
2023/05/21 05:45:30;;;;;;;4.28;0.75;;;16.20;99.90;;;;;;5136505;27;20019;-75
2023/05/21 05:47:56;;;;;;;1.27;0.85;;;16.20;99.90;;;;;;5117746;27;20070;-75
2023/05/21 05:50:21;;;;;;;0.10;0.10;;;16.40;99.90;;;;;;5117533;27;20039;-75
2023/05/21 05:52:47;;;;;;;0.10;0.10;;;16.40;99.90;;;;;;5116601;27;20061;-75
2023/05/21 05:55:13;;;;;;;0.00;0.00;;;16.50;99.90;;;;;;5118062;27;20038;-75
2023/05/21 05:57:39;;;;;;;0.95;0.82;;;16.50;99.90;;;;;;5117452;27;20490;-74
2023/05/21 06:00:11;;;;;;;0.10;0.10;;;16.50;99.90;;;;;;5117835;27;20011;-74
2023/05/21 06:02:39;;;;;;;0.22;0.22;;;16.50;99.90;;;;;;5118169;27;20647;-75
2023/05/21 06:05:07;;;;;;;0.38;0.38;;;16.60;99.90;;;;;;5117636;27;20102;-75
2023/05/21 06:07:33;;;;;;;0.00;0.00;;;16.70;99.90;;;;;;5117223;27;20400;-74
2023/05/21 06:09:58;;;;;;;0.00;0.00;;;16.90;99.90;;;;;;5135819;27;20084;-75
2023/05/21 06:12:25;;;;;;;0.20;0.20;;;17.20;99.90;;;;;;5135902;27;20031;-75
2023/05/21 06:14:50;;;;;;;0.20;0.20;;;17.20;99.90;;;;;;5117467;27;20031;-75
2023/05/21 06:17:16;;;;;;;0.10;0.10;;;17.20;99.90;;;;;;5117388;27;20031;-74
2023/05/21 06:19:44;;;;;;;0.10;0.10;;;17.50;99.90;;;;;;5135715;27;20103;-76
2023/05/21 06:22:10;;;;;;;0.10;0.10;;;17.70;99.90;;;;;;5117270;27;20064;-74
2023/05/21 06:24:36;;;;;;;1.45;0.90;;;17.50;99.90;;;;;;5117181;27;20027;-75
2023/05/21 06:27:02;;;;;;;0.25;0.25;;;17.40;99.90;;;;;;5117283;27;20026;-75
2023/05/21 06:29:29;;;;;;;9.40;1.55;;;17.30;99.90;;;;;;5117067;27;20039;-75
2023/05/21 06:31:55;;;;;;;0.10;0.10;;;17.20;99.90;;;;;;5116768;27;20023;-75
2023/05/21 06:34:21;;;;;;;0.10;0.10;;;17.20;99.90;;;;;;5120994;27;20030;-74
2023/05/21 06:36:47;;;;;;;0.00;0.00;;;17.30;99.90;;;;;;5135116;27;20023;-74
2023/05/21 06:39:13;;;;;;;0.08;0.08;;;17.50;99.90;;;;;;5116993;27;20023;-75
2023/05/21 06:41:38;;;;;;;1.98;0.70;;;17.60;99.90;;;;;;5116774;27;20058;-75
2023/05/21 06:44:22;;;;;;;1.83;1.20;;;17.60;99.90;;;;;;5116680;27;20031;-75
2023/05/21 06:47:02;;;;;;;0.63;0.32;;;17.70;99.90;;;;;;5116846;27;20463;-75
2023/05/21 06:49:29;;;;;;;0.10;0.10;;;17.70;99.90;;;;;;5116615;27;20027;-74
2023/05/21 06:51:54;;;;;;;0.20;0.20;;;17.40;99.90;;;;;;5116441;27;20425;-74
2023/05/21 06:54:20;;;;;;;0.30;0.30;;;17.60;99.90;;;;;;5116489;27;20118;-73
2023/05/21 06:56:46;;;;;;;0.15;0.15;;;17.40;99.90;;;;;;5135204;27;20068;-73
2023/05/21 06:59:14;;;;;;;0.00;0.00;;;17.40;99.90;;;;;;5116568;27;20444;-75
2023/05/21 07:01:41;;;;;;;0.05;0.05;;;17.50;99.90;;;;;;5116445;27;20015;-76
2023/05/21 07:04:08;;;;;;;0.17;0.17;;;17.50;99.90;;;;;;5134554;27;20027;-75
2023/05/21 07:06:34;;;;;;;0.10;0.10;;;17.70;99.90;;;;;;5116177;27;20019;-74
2023/05/21 07:09:01;;;;;;;0.10;0.10;;;17.70;99.90;;;;;;5116172;27;20050;-73
2023/05/21 07:11:28;;;;;;;0.73;0.28;;;17.90;99.90;;;;;;5116296;27;20027;-74
2023/05/21 07:14:02;;;;;;;0.45;0.45;;;17.90;99.90;;;;;;5115978;27;20027;-74
2023/05/21 07:16:30;;;;;;;0.10;0.10;;;17.90;99.90;;;;;;5115914;27;20440;-75
2023/05/21 07:18:57;;;;;;;0.28;0.28;;;18.00;99.90;;;;;;5115628;27;20023;-74
2023/05/21 07:21:23;;;;;;;0.10;0.10;;;18.10;99.90;;;;;;5116301;27;20505;-73
2023/05/21 07:23:51;;;;;;;0.25;0.25;;;18.30;99.90;;;;;;5115870;27;20104;-76
2023/05/21 07:26:17;;;;;;;0.00;0.00;;;18.40;99.90;;;;;;5116268;27;20023;-75
2023/05/21 07:28:44;;;;;;;0.88;0.75;;;18.60;99.90;;;;;;5115844;27;20031;-74
2023/05/21 07:31:11;;;;;;;0.13;0.10;;;18.70;99.90;;;;;;5116058;27;20023;-74
2023/05/21 07:33:41;;;;;;;1.05;1.05;;;18.70;99.90;;;;;;5102265;28;20391;-74
2023/05/21 07:36:09;;;;;;;0.00;0.00;;;18.70;99.90;;;;;;5114918;27;20157;-75
2023/05/21 07:38:35;;;;;;;0.10;0.10;;;18.80;99.90;;;;;;5115913;27;20114;-75
2023/05/21 07:41:00;;;;;;;0.80;0.80;;;19.00;99.90;;;;;;5115428;27;20472;-75
2023/05/21 07:43:26;;;;;;;2.28;0.80;;;19.10;99.90;;;;;;5115523;27;20027;-73
2023/05/21 07:45:52;;;;;;;3.55;0.98;;;18.90;99.90;;;;;;5115638;27;20023;-75
2023/05/21 07:48:18;;;;;;;0.10;0.10;;;19.00;99.90;;;;;;5133822;27;20098;-74
2023/05/21 07:50:52;;;;;;;0.13;0.13;;;19.20;99.90;;;;;;5115514;27;20027;-73
2023/05/21 07:53:19;;;;;;;2.75;1.10;;;19.20;99.90;;;;;;5118596;27;20019;-71
2023/05/21 07:55:49;;;;;;;0.28;0.28;;;19.30;99.90;;;;;;5100660;28;20552;-71
2023/05/21 07:58:19;;;;;;;0.30;0.30;;;19.40;99.90;;;;;;5099232;27;20022;-74
2023/05/21 08:00:46;;;;;;;0.70;0.70;;;19.30;99.90;;;;;;5115300;27;20035;-69
2023/05/21 08:03:15;;;;;;;0.47;0.47;;;19.20;99.90;;;;;;5115234;27;20106;-75
2023/05/21 08:05:47;;;;;;;0.63;0.63;;;19.30;99.90;;;;;;5115318;27;20027;-74
2023/05/21 08:08:20;;;;;;;0.00;0.00;;;19.20;99.90;;;;;;5115478;27;20023;-75
2023/05/21 08:10:48;;;;;;;1.77;1.17;;;19.30;99.90;;;;;;5115587;28;20023;-75
2023/05/21 08:13:15;;;;;;;0.05;0.05;;;19.30;99.90;;;;;;5115129;27;20030;-74
2023/05/21 08:15:42;;;;;;;0.43;0.35;;;19.40;99.90;;;;;;5114671;28;20057;-75
2023/05/21 08:18:08;;;;;;;0.10;0.10;;;19.50;99.90;;;;;;5115097;28;20027;-73
2023/05/21 08:20:35;;;;;;;0.20;0.20;;;19.40;99.90;;;;;;5115363;28;20075;-70
2023/05/21 08:23:01;;;;;;;0.35;0.35;;;19.80;99.90;;;;;;5115295;28;20027;-69
2023/05/21 08:25:30;;;;;;;1.30;0.68;;;19.60;99.90;;;;;;5115047;28;20479;-70
2023/05/21 08:27:58;;;;;;;0.45;0.20;;;19.70;99.90;;;;;;5115088;28;20031;-70
2023/05/21 08:30:24;;;;;;;0.20;0.20;;;19.70;99.90;;;;;;5114930;28;20577;-69
2023/05/21 08:32:50;;;;;;;0.15;0.10;;;19.60;99.90;;;;;;5108798;28;20020;-70
2023/05/21 08:35:18;;;;;;;4.45;1.58;;;19.90;99.90;;;;;;5107117;28;20144;-69
2023/05/21 08:37:52;;;;;;;4.13;1.05;;;20.00;99.90;;;;;;5115091;28;20428;-70
2023/05/21 08:40:31;;;;;;;0.10;0.10;;;20.00;99.90;;;;;;5114721;28;20417;-70
2023/05/21 08:42:57;;;;;;;0.15;0.15;;;20.30;99.90;;;;;;5114991;28;20027;-69
2023/05/21 08:45:41;;;;;;;0.30;0.30;;;20.20;99.90;;;;;;5114842;28;20498;-69
2023/05/21 08:48:12;;;;;;;1.58;1.42;;;20.40;99.90;;;;;;5114691;28;20471;-70
2023/05/21 08:50:40;;;;;;;;;;;20.40;99.90;;;;;;5115190;28;20027;-70
2023/05/21 08:53:16;;;;;;;0.28;0.28;;;20.30;99.90;;;;;;5114858;28;19914;-70
2023/05/21 08:55:42;;;;;;;0.10;0.10;;;20.70;99.90;;;;;;5114845;28;20031;-70
2023/05/21 08:58:09;;;;;;;0.73;0.73;;;21.00;99.90;;;;;;5114954;28;20015;-70
2023/05/21 09:00:36;;;;;;;0.00;0.00;;;20.50;99.90;;;;;;5132987;28;20512;-70
2023/05/21 09:03:06;;;;;;;0.30;0.30;;;20.20;99.90;;;;;;5114735;28;20035;-72
2023/05/21 09:05:34;;;;;;;0.70;0.70;;;20.40;99.90;;;;;;5114768;28;20019;-71
2023/05/21 09:08:06;;;;;;;1.10;1.00;;;20.70;99.90;;;;;;5114520;28;20015;-70
2023/05/21 09:10:41;;;;;;;0.00;0.00;;;21.10;99.90;;;;;;5114691;28;20042;-71
2023/05/21 09:13:09;;;;;;;0.28;0.28;;;21.50;99.90;;;;;;5114415;28;20097;-70
2023/05/21 09:15:35;;;;;;;1.73;0.98;;;21.60;99.90;;;;;;5114460;28;20027;-70
2023/05/21 09:18:00;;;;;;;3.95;1.52;;;21.60;99.90;;;;;;5133005;28;20026;-70
2023/05/21 09:21:28;;;;;;;0.10;0.10;;;21.30;99.90;;;;;;5120006;28;20050;-74
2023/05/21 09:24:02;;;;;;;2.05;1.85;;;21.00;99.90;;;;;;5088905;28;20412;-73
2023/05/21 09:26:28;;;;;;;1.27;1.08;;;20.80;99.90;;;;;;5117233;27;20498;-70
2023/05/21 09:28:59;;;;;;;1.83;1.05;;;20.80;99.90;;;;;;5118161;27;20380;-70
2023/05/21 09:31:26;;;;;;;0.00;0.00;;;20.90;99.90;;;;;;5117783;27;20034;-71
2023/05/21 09:33:54;;;;;;;0.30;0.30;;;21.20;99.90;;;;;;5103616;28;20029;-70
2023/05/21 09:36:20;;;;;;;7.68;1.90;;;21.40;99.90;;;;;;5118020;27;20444;-70
2023/05/21 09:38:48;;;;;;;1.95;1.75;;;21.20;99.90;;;;;;5118130;27;20031;-70
2023/05/21 09:41:13;;;;;;;6.63;0.82;;;21.00;99.90;;;;;;5117792;27;20028;-70
2023/05/21 09:43:43;;;;;;;0.30;0.30;;;21.00;99.90;;;;;;5118119;27;20031;-70
2023/05/21 09:46:10;;;;;;;2.60;1.38;;;21.30;99.90;;;;;;5117592;27;20110;-75
2023/05/21 09:48:41;;;;;;;2.50;0.47;;;21.60;99.90;;;;;;5117649;27;20038;-70
2023/05/21 09:51:15;;;;;;;2.15;0.50;;;21.80;99.90;;;;;;5117858;27;20019;-70
2023/05/21 09:53:56;;;;;;;1.52;0.93;;;21.90;99.90;;;;;;5136178;27;20118;-71
2023/05/21 09:56:28;;;;;;;0.30;0.20;;;22.30;99.90;;;;;;5117724;27;20034;-70
2023/05/21 09:58:55;;;;;;;;;;;22.60;99.90;;;;;;5136203;27;20117;-69
2023/05/21 10:01:23;;;;;;;1.58;1.25;;;22.50;99.90;;;;;;5135911;27;19907;-70
2023/05/21 10:03:54;;;;;;;2.05;1.27;;;22.60;99.90;;;;;;5117410;27;20023;-71
2023/05/21 10:06:21;;;;;;;0.00;0.00;;;22.50;99.90;;;;;;5117741;27;20383;-71
2023/05/21 10:08:51;;;;;;;0.17;0.17;;;23.10;99.90;;;;;;5135826;27;20467;-72
2023/05/21 10:11:20;;;;;;;2.35;0.55;;;23.50;99.90;;;;;;5117135;27;20028;-71
2023/05/21 10:13:50;;;;;;;0.47;0.47;;;23.40;99.70;;;;;;5135413;27;20095;-72
2023/05/21 10:16:17;;;;;;;5.57;0.32;;;23.70;99.50;;;;;;5117455;27;20030;-71
2023/05/21 10:18:45;;;;;;;0.00;0.00;;;23.50;99.40;;;;;;5135534;27;20026;-71
2023/05/21 10:21:11;;;;;;;1.23;1.13;;;23.20;99.90;;;;;;5135629;27;20058;-71
2023/05/21 10:23:38;;;;;;;0.57;0.57;;;23.20;99.80;;;;;;5135530;27;20027;-70
2023/05/21 10:26:05;;;;;;;0.43;0.43;;;23.30;99.90;;;;;;5117242;27;20429;-70
2023/05/21 10:28:32;;;;;;;0.32;0.32;;;23.70;99.90;;;;;;5135141;27;20031;-70
2023/05/21 10:30:59;;;;;;;3.00;0.47;;;24.10;99.50;;;;;;5135484;27;20468;-71
2023/05/21 10:33:26;;;;;;;0.45;0.45;;;23.60;99.10;;;;;;5124184;27;20027;-71
2023/05/21 10:35:53;;;;;;;0.57;0.50;;;24.00;99.90;;;;;;5132425;27;20019;-71
2023/05/21 10:38:19;;;;;;;0.00;0.00;;;24.10;98.90;;;;;;5116222;27;20028;-72
2023/05/21 10:40:47;;;;;;;1.67;1.17;;;24.20;99.50;;;;;;5135084;27;20023;-70
2023/05/21 10:43:22;;;;;;;0.90;0.20;;;24.50;98.70;;;;;;5134841;27;20399;-73
2023/05/21 10:46:19;;;;;;;2.20;1.10;;;24.90;98.10;;;;;;5135140;27;20023;-72
2023/05/21 10:48:59;;;;;;;1.67;1.40;;;24.90;98.00;;;;;;5134280;27;20043;-70
2023/05/21 10:51:28;;;;;;;0.85;0.35;;;24.60;98.10;;;;;;5134634;27;20483;-71
2023/05/21 10:54:21;;;;;;;0.13;0.13;;;25.00;97.80;;;;;;5116745;27;20449;-70
2023/05/21 10:57:05;;;;;;;0.35;0.35;;;25.00;97.70;;;;;;5108279;27;20106;-70
2023/05/21 10:59:34;;;;;;;0.90;0.75;;;25.20;98.00;;;;;;5100421;27;20458;-73
2023/05/21 11:02:01;;;;;;;0.10;0.10;;;25.60;96.70;;;;;;5134751;27;20019;-70
2023/05/21 11:04:28;;;;;;;0.20;0.20;;;25.80;97.20;;;;;;5134652;27;20479;-70
2023/05/21 11:06:57;;;;;;;0.32;0.32;;;26.00;97.40;;;;;;5135044;27;20031;-71
2023/05/21 11:09:23;;;;;;;1.88;0.40;;;25.60;97.00;;;;;;5116138;27;20073;-72
2023/05/21 11:11:56;;;;;;;2.63;0.65;;;25.80;97.00;;;;;;5134527;27;20015;-72
2023/05/21 11:14:35;;;;;;;0.80;0.80;;;26.00;96.80;;;;;;5134459;27;20027;-73
2023/05/21 11:17:06;;;;;;;0.55;0.52;;;26.20;96.90;;;;;;5134516;27;20058;-71
2023/05/21 11:19:36;;;;;;;;;;;26.10;96.10;;;;;;5134556;27;20034;-72
2023/05/21 11:22:10;;;;;;;0.13;0.13;;;25.40;96.20;;;;;;5134372;27;19907;-70
2023/05/21 11:24:40;;;;;;;0.80;0.80;;;24.80;97.50;;;;;;5116086;27;20031;-73
2023/05/21 11:27:06;;;;;;;1.05;0.98;;;24.80;97.90;;;;;;5133977;27;20015;-70
2023/05/21 11:29:44;;;;;;;0.30;0.30;;;24.90;97.90;;;;;;5115731;27;20437;-70
2023/05/21 11:32:12;;;;;;;0.20;0.20;;;25.00;97.60;;;;;;5133749;27;20023;-75
2023/05/21 11:34:42;;;;;;;2.38;1.75;;;24.90;97.60;;;;;;5120494;27;20375;-71
2023/05/21 11:37:22;;;;;;;1.63;0.95;;;24.90;97.60;;;;;;5134441;27;20510;-70
2023/05/21 11:39:49;;;;;;;0.13;0.13;;;24.60;98.30;;;;;;5108050;27;20038;-74
2023/05/21 11:42:37;;;;;;;1.13;0.47;;;24.90;98.10;;;;;;5115519;27;20479;-71
2023/05/21 11:45:04;;;;;;;0.65;0.65;;;24.80;98.30;;;;;;5110778;27;20080;-70
2023/05/21 11:47:33;;;;;;;0.20;0.20;;;24.50;98.50;;;;;;5134153;27;20030;-70
2023/05/21 11:50:01;;;;;;;0.10;0.10;;;24.10;99.10;;;;;;5114413;27;20087;-71
2023/05/21 11:52:31;;;;;;;0.00;0.00;;;24.40;98.40;;;;;;5134107;27;20023;-71
2023/05/21 11:54:58;;;;;;;2.17;0.80;;;24.30;98.30;;;;;;5133650;27;20030;-70
2023/05/21 11:57:31;;;;;;;0.00;0.00;;;24.30;98.20;;;;;;5133766;27;20023;-70
2023/05/21 11:59:58;;;;;;;0.30;0.20;;;24.70;98.30;;;;;;5133564;27;20491;-70
2023/05/21 12:02:30;;;;;;;0.10;0.10;;;25.00;98.70;;;;;;5115465;27;20023;-70
2023/05/21 12:04:59;;;;;;;2.03;0.95;;;24.80;98.40;;;;;;5133634;27;20030;-69
2023/05/21 12:07:31;;;;;;;5.85;2.63;;;24.70;98.10;;;;;;5104363;28;20042;-70
2023/05/21 12:09:57;;;;;;;0.45;0.45;;;24.60;98.30;;;;;;5130458;27;20027;-69
2023/05/21 12:12:26;;;;;;;1.63;0.73;;;24.50;98.10;;;;;;5134002;28;20438;-70
2023/05/21 12:14:54;;;;;;;0.55;0.50;;;25.10;98.10;;;;;;5133585;28;20040;-70
2023/05/21 12:17:22;;;;;;;0.00;0.00;;;26.00;97.40;;;;;;5133532;28;20023;-70
2023/05/21 12:19:50;;;;;;;0.60;0.60;;;26.20;96.40;;;;;;5133539;28;20413;-70
2023/05/21 12:22:16;;;;;;;0.40;0.40;;;25.90;96.60;;;;;;5133438;28;20106;-70
2023/05/21 12:24:43;;;;;;;0.10;0.10;;;25.80;97.40;;;;;;5133356;28;20421;-70
2023/05/21 12:27:12;;;;;;;3.97;0.98;;;25.60;96.80;;;;;;5133569;28;20011;-70
2023/05/21 12:29:42;;;;;;;0.22;0.22;;;25.60;96.80;;;;;;5115006;28;20039;-71
2023/05/21 12:32:11;;;;;;;1.45;0.60;;;25.90;97.50;;;;;;5133338;28;20037;-71
2023/05/21 12:34:43;;;;;;;0.52;0.52;;;26.40;97.00;;;;;;5119865;28;20031;-70
2023/05/21 12:37:11;;;;;;;0.00;0.00;;;26.80;96.00;;;;;;5133498;28;20031;-70
2023/05/21 12:39:44;;;;;;;0.50;0.50;;;26.40;96.30;;;;;;5133081;28;20043;-70
2023/05/21 12:42:11;;;;;;;0.65;0.47;;;26.20;96.00;;;;;;5133325;28;20027;-70
2023/05/21 12:44:55;;;;;;;0.10;0.10;;;25.50;96.70;;;;;;5133359;28;20080;-70
2023/05/21 12:47:27;;;;;;;0.08;0.08;;;25.70;97.00;;;;;;5133523;28;20054;-70
2023/05/21 12:49:56;;;;;;;0.52;0.40;;;25.60;97.10;;;;;;5133227;28;20083;-74
2023/05/21 12:52:23;;;;;;;0.50;0.50;;;25.30;97.50;;;;;;5133047;28;20075;-71
2023/05/21 12:54:50;;;;;;;0.75;0.70;;;25.00;97.20;;;;;;5132932;28;20028;-71